createdAt,value
2022-09-28T00:02:10.040Z,6.97
2022-09-28T00:04:36.429Z,6.92
2022-09-28T00:07:03.057Z,6.93
2022-09-28T00:09:29.376Z,6.94
2022-09-28T00:11:57.197Z,7.01
2022-09-28T00:14:23.707Z,6.93
2022-09-28T00:16:50.253Z,6.94
2022-09-28T00:19:16.802Z,6.89
2022-09-28T00:21:43.222Z,6.94
2022-09-28T00:24:15.533Z,6.84
2022-09-28T00:26:49.086Z,6.94
2022-09-28T00:29:26.484Z,6.87
2022-09-28T00:31:53.540Z,6.86
2022-09-28T00:34:19.957Z,6.91
2022-09-28T00:36:46.294Z,6.89
2022-09-28T00:39:12.897Z,6.93
2022-09-28T00:41:39.283Z,6.98
2022-09-28T00:44:24.178Z,6.99
2022-09-28T00:46:50.796Z,7.01
2022-09-28T00:49:17.616Z,6.98
2022-09-28T00:51:44.018Z,6.97
2022-09-28T00:54:10.324Z,7.02
2022-09-28T00:56:36.693Z,7.01
2022-09-28T00:59:04.666Z,6.99
2022-09-28T01:01:31.235Z,6.98
2022-09-28T01:04:01.413Z,7.00
2022-09-28T01:06:28.984Z,7.07
2022-09-28T01:08:55.863Z,7.04
2022-09-28T01:11:22.424Z,7.04
2022-09-28T01:13:48.735Z,6.92
2022-09-28T01:16:28.661Z,6.92
2022-09-28T01:19:13.755Z,6.90
2022-09-28T01:21:48.792Z,6.97
2022-09-28T01:24:33.868Z,6.97
2022-09-28T01:27:00.138Z,6.99
2022-09-28T01:29:26.406Z,6.99
2022-09-28T01:31:53.360Z,6.97
2022-09-28T01:34:30.830Z,7.00
2022-09-28T01:36:57.495Z,6.92
2022-09-28T01:39:34.366Z,6.88
2022-09-28T01:42:01.415Z,6.91
2022-09-28T01:44:28.419Z,6.92
2022-09-28T01:46:54.773Z,7.02
2022-09-28T01:49:22.437Z,6.93
2022-09-28T01:51:53.727Z,6.93
2022-09-28T01:54:21.306Z,6.89
2022-09-28T01:56:49.386Z,6.89
2022-09-28T01:59:16.500Z,6.92
2022-09-28T02:01:47.760Z,6.94
2022-09-28T02:04:14.012Z,6.96
2022-09-28T02:06:42.124Z,7.02
2022-09-28T02:09:10.257Z,6.93
2022-09-28T02:11:37.433Z,6.94
2022-09-28T02:14:07.950Z,6.92
2022-09-28T02:16:34.615Z,6.98
2022-09-28T02:19:01.283Z,6.98
2022-09-28T02:21:28.329Z,7.04
2022-09-28T02:23:58.293Z,6.99
2022-09-28T02:26:25.476Z,7.04
2022-09-28T02:28:51.811Z,7.05
2022-09-28T02:31:18.225Z,7.03
2022-09-28T02:33:44.600Z,7.04
2022-09-28T02:36:10.912Z,7.02
2022-09-28T02:38:37.575Z,7.04
2022-09-28T02:41:05.864Z,7.17
2022-09-28T02:43:46.261Z,7.13
2022-09-28T02:46:16.615Z,7.13
2022-09-28T02:49:20.347Z,7.13
2022-09-28T02:52:06.879Z,7.10
2022-09-28T02:54:39.024Z,7.11
2022-09-28T02:57:10.823Z,7.12
2022-09-28T02:59:40.428Z,7.09
2022-09-28T03:02:12.813Z,7.05
2022-09-28T03:04:57.896Z,7.03
2022-09-28T03:07:29.620Z,7.05
2022-09-28T03:09:58.380Z,7.00
2022-09-28T03:12:24.754Z,7.04
2022-09-28T03:15:10.911Z,7.14
2022-09-28T03:17:37.453Z,7.08
2022-09-28T03:20:04.319Z,7.04
2022-09-28T03:22:30.643Z,7.13
2022-09-28T03:24:56.941Z,7.12
2022-09-28T03:27:23.267Z,7.14
2022-09-28T03:29:49.908Z,7.21
2022-09-28T03:32:16.231Z,7.14
2022-09-28T03:34:42.570Z,7.10
2022-09-28T03:37:08.885Z,7.20
2022-09-28T03:39:35.186Z,7.31
2022-09-28T03:42:01.510Z,7.20
2022-09-28T03:44:27.825Z,7.13
2022-09-28T03:46:54.229Z,7.19
2022-09-28T03:49:20.549Z,7.11
2022-09-28T03:51:46.924Z,7.14
2022-09-28T03:54:13.236Z,6.96
2022-09-28T03:56:40.040Z,6.88
2022-09-28T03:59:06.514Z,6.90
2022-09-28T04:01:32.929Z,6.79
2022-09-28T04:03:59.293Z,6.88
2022-09-28T04:06:25.597Z,6.74
2022-09-28T04:08:51.907Z,6.84
2022-09-28T04:11:18.209Z,6.80
2022-09-28T04:13:44.534Z,6.65
2022-09-28T04:16:11.418Z,6.77
2022-09-28T04:18:38.653Z,6.58
2022-09-28T04:21:08.913Z,6.60
2022-09-28T04:23:35.449Z,6.55
2022-09-28T04:26:05.257Z,6.45
2022-09-28T04:28:50.349Z,6.46
2022-09-28T04:31:17.614Z,6.36
2022-09-28T04:33:43.964Z,6.25
2022-09-28T04:36:10.987Z,6.29
2022-09-28T04:38:52.374Z,6.40
2022-09-28T04:41:19.651Z,6.36
2022-09-28T04:43:49.074Z,6.32
2022-09-28T04:46:15.463Z,6.31
2022-09-28T04:48:41.842Z,6.31
2022-09-28T04:51:08.153Z,6.31
2022-09-28T04:53:35.122Z,6.30
2022-09-28T04:56:02.140Z,6.25
2022-09-28T04:58:28.784Z,6.24
2022-09-28T05:00:57.385Z,6.42
2022-09-28T05:03:23.819Z,6.40
2022-09-28T05:05:50.170Z,6.36
2022-09-28T05:08:16.671Z,6.37
2022-09-28T05:10:43.250Z,6.42
2022-09-28T05:13:09.811Z,6.35
2022-09-28T05:15:36.460Z,6.39
2022-09-28T05:18:02.847Z,6.41
2022-09-28T05:20:29.179Z,6.42
2022-09-28T05:22:55.508Z,6.40
2022-09-28T05:25:21.865Z,6.48
2022-09-28T05:27:48.183Z,6.55
2022-09-28T05:30:14.552Z,6.54
2022-09-28T05:32:41.363Z,6.52
2022-09-28T05:35:07.914Z,6.49
2022-09-28T05:37:36.116Z,6.49
2022-09-28T05:40:03.114Z,6.44
2022-09-28T05:42:29.790Z,6.39
2022-09-28T05:44:56.219Z,6.39
2022-09-28T05:47:22.531Z,6.39
2022-09-28T05:49:49.010Z,6.50
2022-09-28T05:52:15.306Z,6.51
2022-09-28T05:54:41.606Z,6.56
2022-09-28T05:57:07.906Z,6.58
2022-09-28T05:59:35.172Z,6.44
2022-09-28T06:02:01.659Z,6.44
2022-09-28T06:04:28.999Z,6.56
2022-09-28T06:06:55.511Z,6.56
2022-09-28T06:09:25.892Z,6.57
2022-09-28T06:11:52.811Z,6.62
2022-09-28T06:14:19.118Z,6.63
2022-09-28T06:16:45.463Z,6.51
2022-09-28T06:19:11.958Z,6.65
2022-09-28T06:21:38.270Z,6.64
2022-09-28T06:24:04.732Z,6.62
2022-09-28T06:26:31.166Z,6.63
2022-09-28T06:28:57.709Z,6.58
2022-09-28T06:31:24.354Z,6.58
2022-09-28T06:33:50.719Z,6.55
2022-09-28T06:36:17.026Z,6.57
2022-09-28T06:38:43.346Z,6.57
2022-09-28T06:41:09.819Z,6.58
2022-09-28T06:43:36.696Z,6.53
2022-09-28T06:46:03.170Z,6.65
2022-09-28T06:48:29.645Z,6.60
2022-09-28T06:50:55.952Z,6.72
2022-09-28T06:53:23.612Z,6.79
2022-09-28T06:55:50.257Z,6.72
2022-09-28T06:58:17.322Z,6.80
2022-09-28T07:00:44.042Z,6.76
2022-09-28T07:03:11.727Z,6.72
2022-09-28T07:05:41.427Z,6.70
2022-09-28T07:08:07.747Z,6.73
2022-09-28T07:10:34.049Z,6.76
2022-09-28T07:13:02.595Z,6.87
2022-09-28T07:15:29.525Z,6.86
2022-09-28T07:18:02.586Z,6.92
2022-09-28T07:20:30.123Z,7.07
2022-09-28T07:22:58.290Z,7.10
2022-09-28T07:25:25.907Z,7.08
2022-09-28T07:27:55.433Z,7.24
2022-09-28T07:30:21.778Z,7.19
2022-09-28T07:32:48.386Z,7.16
2022-09-28T07:35:15.006Z,7.31
2022-09-28T07:37:41.315Z,7.25
2022-09-28T07:40:26.714Z,7.41
2022-09-28T07:42:53.110Z,7.50
2022-09-28T07:45:25.517Z,7.63
2022-09-28T07:47:55.703Z,7.67
2022-09-28T07:50:22.157Z,7.74
2022-09-28T07:52:49.224Z,7.73
2022-09-28T07:55:15.777Z,7.91
2022-09-28T07:57:42.152Z,7.97
2022-09-28T08:00:09.294Z,8.14
2022-09-28T08:02:36.927Z,8.15
2022-09-28T08:05:03.344Z,8.29
2022-09-28T08:07:29.641Z,8.44
2022-09-28T08:09:56.022Z,8.22
2022-09-28T08:12:22.321Z,8.37
2022-09-28T08:14:49.115Z,8.38
2022-09-28T08:17:16.549Z,8.51
2022-09-28T08:20:01.673Z,8.54
2022-09-28T08:22:32.081Z,8.67
2022-09-28T08:24:58.395Z,8.63
2022-09-28T08:27:24.693Z,8.66
2022-09-28T08:29:51.401Z,8.53
2022-09-28T08:32:18.300Z,8.47
2022-09-28T08:34:44.654Z,8.38
2022-09-28T08:37:11.038Z,8.40
2022-09-28T08:39:37.373Z,8.35
2022-09-28T08:42:25.639Z,8.36
2022-09-28T08:44:53.542Z,8.40
2022-09-28T08:47:39.683Z,8.44
2022-09-28T08:50:06.410Z,8.37
2022-09-28T08:52:34.502Z,8.38
2022-09-28T08:55:11.430Z,8.61
2022-09-28T08:57:48.270Z,8.59
2022-09-28T09:00:19.670Z,8.61
2022-09-28T09:02:46.981Z,8.52
2022-09-28T09:05:14.753Z,8.66
2022-09-28T09:07:41.032Z,8.46
2022-09-28T09:10:07.266Z,8.42
2022-09-28T09:15:31.995Z,8.40
2022-09-28T09:18:01.329Z,8.63
2022-09-28T09:20:27.630Z,8.59
2022-09-28T09:23:00.675Z,8.61
2022-09-28T09:25:28.459Z,8.63
2022-09-28T09:28:02.372Z,8.71
2022-09-28T09:30:31.602Z,8.77
2022-09-28T09:33:30.592Z,8.81
2022-09-28T09:36:03.077Z,9.09
2022-09-28T09:38:35.840Z,9.29
2022-09-28T09:41:02.176Z,9.01
2022-09-28T09:43:44.068Z,9.14
2022-09-28T09:46:13.318Z,9.03
2022-09-28T09:48:46.048Z,8.91
2022-09-28T09:51:20.898Z,8.83
2022-09-28T09:53:59.946Z,8.83
2022-09-28T09:56:28.270Z,8.87
2022-09-28T09:58:56.072Z,8.81
2022-09-28T10:01:27.201Z,8.62
2022-09-28T10:03:53.545Z,8.33
2022-09-28T10:06:27.443Z,8.22
2022-09-28T10:09:20.115Z,8.04
2022-09-28T10:11:52.146Z,8.08
2022-09-28T10:14:22.471Z,7.95
2022-09-28T10:16:58.095Z,8.05
2022-09-28T10:19:31.930Z,8.01
2022-09-28T10:22:00.150Z,8.16
2022-09-28T10:24:32.080Z,8.01
2022-09-28T10:27:05.283Z,8.00
2022-09-28T10:29:34.645Z,7.75
2022-09-28T10:32:00.984Z,7.82
2022-09-28T10:34:28.062Z,7.84
2022-09-28T10:36:55.889Z,7.84
2022-09-28T10:39:32.411Z,7.99
2022-09-28T10:41:59.812Z,7.95
2022-09-28T10:44:26.185Z,7.96
2022-09-28T10:47:02.336Z,8.00
2022-09-28T10:49:29.424Z,7.90
2022-09-28T10:51:58.644Z,7.79
2022-09-28T10:54:25.737Z,7.85
2022-09-28T10:56:52.657Z,7.88
2022-09-28T10:59:25.162Z,7.98
2022-09-28T11:01:55.687Z,8.33
2022-09-28T11:04:22.233Z,8.43
2022-09-28T11:06:50.433Z,8.47
2022-09-28T11:09:28.410Z,8.59
2022-09-28T11:12:00.209Z,8.77
2022-09-28T11:14:41.330Z,8.65
2022-09-28T11:17:14.874Z,8.61
2022-09-28T11:19:42.150Z,8.57
2022-09-28T11:22:26.127Z,8.42
2022-09-28T11:24:52.923Z,8.47
2022-09-28T11:27:22.693Z,8.31
2022-09-28T11:29:55.621Z,8.30
2022-09-28T11:32:27.797Z,8.31
2022-09-28T11:34:59.648Z,8.31
2022-09-28T11:37:27.827Z,8.43
2022-09-28T11:39:57.391Z,8.58
2022-09-28T11:42:30.283Z,8.88
2022-09-28T11:45:00.859Z,9.42
2022-09-28T11:47:30.176Z,9.87
2022-09-28T11:50:17.847Z,10.01
2022-09-28T11:52:46.502Z,9.72
2022-09-28T11:55:21.930Z,9.71
2022-09-28T11:57:50.102Z,9.28
2022-09-28T12:00:18.531Z,9.11
2022-09-28T12:02:47.900Z,9.02
2022-09-28T12:05:22.696Z,8.94
2022-09-28T12:07:50.662Z,8.89
2022-09-28T12:10:19.478Z,8.79
2022-09-28T12:12:54.322Z,8.82
2022-09-28T12:16:06.830Z,8.99
2022-09-28T12:18:40.175Z,9.01
2022-09-28T12:21:15.074Z,9.10
2022-09-28T12:23:41.378Z,8.94
2022-09-28T12:26:16.535Z,8.96
2022-09-28T12:28:47.235Z,9.20
2022-09-28T12:31:20.560Z,9.51
2022-09-28T12:33:48.002Z,9.69
2022-09-28T12:36:18.369Z,9.71
2022-09-28T12:39:14.856Z,9.64
2022-09-28T12:41:39.128Z,9.51
2022-09-28T12:44:17.468Z,9.62
2022-09-28T12:46:49.312Z,9.88
2022-09-28T12:52:18.947Z,10.26
2022-09-28T12:54:57.715Z,10.21
2022-09-28T12:57:24.342Z,10.14
2022-09-28T13:00:01.696Z,10.14
2022-09-28T13:02:31.157Z,10.24
2022-09-28T13:05:17.760Z,9.88
2022-09-28T13:07:52.309Z,10.02
2022-09-28T13:10:21.880Z,10.00
2022-09-28T13:13:07.647Z,9.96
2022-09-28T13:15:46.143Z,10.26
2022-09-28T13:18:21.362Z,10.35
2022-09-28T13:20:50.859Z,11.05
2022-09-28T13:23:22.541Z,11.39
2022-09-28T13:25:56.203Z,11.14
2022-09-28T13:28:26.229Z,10.90
2022-09-28T13:30:53.869Z,10.59
2022-09-28T13:33:26.001Z,10.27
2022-09-28T13:35:52.336Z,10.32
2022-09-28T13:38:18.634Z,10.24
2022-09-28T13:41:03.773Z,10.19
2022-09-28T13:43:49.029Z,10.16
2022-09-28T13:46:44.657Z,10.20
2022-09-28T13:49:17.538Z,10.28
2022-09-28T13:51:49.863Z,10.60
2022-09-28T13:54:19.308Z,10.60
2022-09-28T13:57:04.584Z,10.25
2022-09-28T13:59:30.897Z,10.35
2022-09-28T14:02:15.076Z,10.50
2022-09-28T14:05:00.899Z,10.32
2022-09-28T14:07:36.225Z,9.80
2022-09-28T14:10:21.941Z,9.75
2022-09-28T14:12:48.847Z,9.63
2022-09-28T14:15:38.245Z,9.34
2022-09-28T14:18:08.474Z,9.45
2022-09-28T14:20:35.096Z,9.30
2022-09-28T14:23:01.342Z,9.44
2022-09-28T14:25:28.134Z,9.48
2022-09-28T14:27:57.535Z,9.37
2022-09-28T14:30:25.614Z,9.61
2022-09-28T14:32:55.925Z,9.76
2022-09-28T14:35:27.409Z,9.81
2022-09-28T14:38:13.639Z,9.83
2022-09-28T14:41:11.110Z,9.51
2022-09-28T14:43:43.437Z,9.48
2022-09-28T14:46:16.869Z,9.53
2022-09-28T14:48:47.843Z,9.56
2022-09-28T14:51:26.376Z,9.62
2022-09-28T14:54:08.001Z,9.61
2022-09-28T14:56:43.561Z,9.66
2022-09-28T14:59:12.185Z,9.64
2022-09-28T15:01:38.504Z,9.37
2022-09-28T15:04:04.886Z,9.31
2022-09-28T15:06:46.907Z,9.41
2022-09-28T15:09:28.903Z,9.46
2022-09-28T15:12:07.552Z,9.41
2022-09-28T15:14:34.563Z,9.42
2022-09-28T15:17:02.830Z,9.48
2022-09-28T15:19:29.067Z,9.50
2022-09-28T15:21:55.381Z,9.31
2022-09-28T15:24:34.139Z,9.29
2022-09-28T15:27:01.424Z,9.33
2022-09-28T15:29:31.380Z,9.27
2022-09-28T15:31:58.405Z,9.24
2022-09-28T15:34:51.957Z,9.18
2022-09-28T15:37:19.945Z,9.04
2022-09-28T15:39:48.062Z,8.99
2022-09-28T15:42:15.125Z,9.01
2022-09-28T15:44:45.863Z,9.01
2022-09-28T15:47:15.640Z,9.15
2022-09-28T15:49:58.493Z,9.24
2022-09-28T15:52:28.694Z,9.28
2022-09-28T15:54:55.044Z,9.27
2022-09-28T15:57:36.753Z,9.32
2022-09-28T16:00:35.777Z,9.38
2022-09-28T16:03:05.559Z,9.23
2022-09-28T16:05:35.686Z,9.14
2022-09-28T16:08:02.899Z,9.02
2022-09-28T16:10:30.913Z,8.95
2022-09-28T16:13:10.988Z,8.92
2022-09-28T16:15:37.680Z,8.72
2022-09-28T16:18:04.663Z,8.67
2022-09-28T16:20:35.535Z,8.59
2022-09-28T16:23:07.994Z,8.43
2022-09-28T16:25:35.714Z,8.17
2022-09-28T16:28:02.030Z,8.07
2022-09-28T16:30:32.362Z,7.89
2022-09-28T16:33:25.044Z,7.72
2022-09-28T16:35:51.441Z,7.57
2022-09-28T16:38:17.959Z,7.44
2022-09-28T16:40:49.478Z,7.44
2022-09-28T16:43:26.787Z,7.39
2022-09-28T16:46:00.294Z,7.35
2022-09-28T16:48:27.450Z,7.27
2022-09-28T16:50:53.881Z,7.25
2022-09-28T16:53:38.643Z,7.20
2022-09-28T16:56:05.149Z,7.26
2022-09-28T16:58:31.960Z,7.21
2022-09-28T17:00:58.515Z,7.30
2022-09-28T17:03:24.868Z,7.35
2022-09-28T17:05:51.359Z,7.37
2022-09-28T17:08:18.314Z,7.41
2022-09-28T17:11:12.606Z,7.41
2022-09-28T17:13:33.397Z,7.46
2022-09-28T17:16:04.265Z,7.46
2022-09-28T17:18:37.255Z,7.42
2022-09-28T17:21:03.977Z,7.46
2022-09-28T17:23:30.403Z,7.49
2022-09-28T17:25:56.939Z,7.46
2022-09-28T17:28:24.177Z,7.54
2022-09-28T17:30:50.533Z,7.62
2022-09-28T17:33:16.865Z,7.58
2022-09-28T17:35:43.301Z,7.64
2022-09-28T17:38:12.907Z,7.66
2022-09-28T17:40:39.315Z,7.73
2022-09-28T17:43:06.128Z,7.72
2022-09-28T17:45:32.886Z,7.69
2022-09-28T17:47:59.195Z,7.67
2022-09-28T17:50:26.207Z,7.63
2022-09-28T17:52:52.708Z,7.70
2022-09-28T17:55:22.462Z,7.67
2022-09-28T17:57:48.905Z,7.71
2022-09-28T18:00:15.347Z,7.75
2022-09-28T18:02:41.700Z,7.69
2022-09-28T18:05:08.171Z,7.75
2022-09-28T18:07:34.494Z,7.75
2022-09-28T18:10:00.869Z,7.71
2022-09-28T18:12:27.511Z,7.76
2022-09-28T18:14:53.855Z,7.76
2022-09-28T18:17:20.173Z,7.79
2022-09-28T18:19:46.488Z,7.90
2022-09-28T18:22:13.034Z,7.74
2022-09-28T18:24:39.359Z,7.71
2022-09-28T18:27:05.656Z,7.75
2022-09-28T18:29:33.579Z,7.70
2022-09-28T18:32:00.192Z,7.69
2022-09-28T18:34:26.527Z,7.74
2022-09-28T18:36:52.854Z,7.79
2022-09-28T18:39:19.450Z,7.79
2022-09-28T18:41:45.841Z,7.72
2022-09-28T18:44:12.248Z,7.87
2022-09-28T18:46:38.648Z,7.82
2022-09-28T18:49:05.003Z,7.85
2022-09-28T18:51:31.314Z,7.79
2022-09-28T18:53:57.709Z,7.73
2022-09-28T18:56:24.036Z,7.75
2022-09-28T18:58:53.189Z,7.65
2022-09-28T19:01:35.696Z,7.69
2022-09-28T19:04:02.937Z,7.54
2022-09-28T19:06:29.739Z,7.47
2022-09-28T19:08:56.163Z,7.50
2022-09-28T19:11:22.612Z,7.37
2022-09-28T19:13:48.935Z,7.32
2022-09-28T19:16:20.592Z,7.25
2022-09-28T19:18:46.961Z,7.13
2022-09-28T19:21:13.607Z,7.07
2022-09-28T19:23:39.977Z,7.06
2022-09-28T19:26:11.309Z,7.12
2022-09-28T19:28:37.731Z,7.15
2022-09-28T19:31:05.063Z,7.23
2022-09-28T19:33:31.389Z,7.23
2022-09-28T19:36:01.563Z,7.26
2022-09-28T19:38:28.494Z,7.20
2022-09-28T19:40:54.874Z,7.15
2022-09-28T19:43:21.671Z,7.15
2022-09-28T19:45:52.093Z,7.23
2022-09-28T19:48:30.717Z,7.24
2022-09-28T19:50:58.490Z,7.32
2022-09-28T19:53:28.868Z,7.52
2022-09-28T19:55:55.471Z,7.54
2022-09-28T19:58:22.135Z,7.63
2022-09-28T20:00:48.451Z,7.64
2022-09-28T20:03:14.778Z,7.67
2022-09-28T20:05:42.406Z,7.72
2022-09-28T20:08:09.139Z,7.72
2022-09-28T20:10:35.536Z,7.73
2022-09-28T20:13:01.861Z,7.76
2022-09-28T20:15:28.683Z,7.77
2022-09-28T20:17:58.664Z,7.70
2022-09-28T20:20:26.784Z,7.69
2022-09-28T20:22:53.734Z,7.62
2022-09-28T20:25:20.042Z,7.56
2022-09-28T20:27:46.370Z,7.56
2022-09-28T20:30:14.386Z,7.64
2022-09-28T20:32:40.811Z,7.62
2022-09-28T20:35:07.395Z,7.64
2022-09-28T20:37:34.046Z,7.67
2022-09-28T20:40:01.666Z,7.74
2022-09-28T20:42:31.904Z,7.64
2022-09-28T20:44:58.302Z,7.61
2022-09-28T20:47:24.606Z,7.67
2022-09-28T20:49:52.679Z,7.58
2022-09-28T20:52:19.185Z,7.53
2022-09-28T20:54:45.487Z,7.51
2022-09-28T20:57:17.763Z,7.48
2022-09-28T20:59:51.011Z,7.44
2022-09-28T21:02:20.165Z,7.29
2022-09-28T21:04:46.548Z,7.26
2022-09-28T21:07:12.881Z,7.18
2022-09-28T21:09:39.232Z,7.15
2022-09-28T21:12:05.723Z,7.15
2022-09-28T21:14:32.086Z,7.23
2022-09-28T21:16:58.400Z,7.31
2022-09-28T21:19:24.719Z,7.16
2022-09-28T21:21:51.146Z,7.18
2022-09-28T21:24:17.467Z,7.06
2022-09-28T21:26:43.784Z,7.01
2022-09-28T21:29:10.928Z,6.89
2022-09-28T21:31:38.025Z,6.86
2022-09-28T21:34:04.754Z,6.89
2022-09-28T21:36:31.127Z,6.72
2022-09-28T21:38:57.438Z,6.61
2022-09-28T21:41:24.145Z,6.51
2022-09-28T21:43:50.452Z,6.40
2022-09-28T21:46:17.625Z,6.39
2022-09-28T21:48:44.052Z,6.21
2022-09-28T21:51:10.863Z,6.14
2022-09-28T21:53:37.422Z,6.11
2022-09-28T21:56:04.509Z,6.15
2022-09-28T21:58:31.579Z,6.03
2022-09-28T22:01:07.234Z,5.93
2022-09-28T22:03:34.889Z,5.88
2022-09-28T22:06:01.512Z,5.84
2022-09-28T22:08:27.822Z,5.75
2022-09-28T22:11:13.285Z,5.90
2022-09-28T22:13:40.605Z,5.96
2022-09-28T22:16:07.383Z,5.98
2022-09-28T22:18:36.839Z,5.92
2022-09-28T22:21:06.397Z,5.94
2022-09-28T22:23:33.083Z,5.86
2022-09-28T22:26:03.845Z,5.84
2022-09-28T22:28:30.225Z,5.89
2022-09-28T22:30:57.067Z,6.27
2022-09-28T22:33:23.507Z,6.03
2022-09-28T22:35:51.233Z,5.94
2022-09-28T22:38:18.444Z,5.97
2022-09-28T22:40:51.544Z,6.04
2022-09-28T22:43:18.679Z,6.00
2022-09-28T22:45:45.025Z,5.96
2022-09-28T22:48:11.392Z,5.96
2022-09-28T22:50:38.877Z,5.90
2022-09-28T22:53:05.764Z,5.90
2022-09-28T22:55:33.963Z,5.95
2022-09-28T22:58:01.218Z,5.89
2022-09-28T23:00:27.561Z,5.91
2022-09-28T23:02:54.289Z,5.95
2022-09-28T23:05:20.712Z,5.86
2022-09-28T23:07:47.600Z,5.90
2022-09-28T23:10:13.933Z,5.83
2022-09-28T23:12:40.611Z,5.79
2022-09-28T23:15:07.175Z,5.64
2022-09-28T23:17:36.314Z,5.72
2022-09-28T23:20:02.740Z,5.72
2022-09-28T23:22:29.057Z,5.69
2022-09-28T23:24:55.366Z,5.72
2022-09-28T23:27:21.720Z,5.67
2022-09-28T23:29:48.903Z,5.76
2022-09-28T23:32:16.528Z,5.66
2022-09-28T23:34:43.062Z,5.71
2022-09-28T23:37:09.642Z,5.65
2022-09-28T23:39:35.964Z,5.63
2022-09-28T23:42:03.030Z,5.60
2022-09-28T23:44:29.457Z,5.58
2022-09-28T23:46:55.806Z,5.49
2022-09-28T23:49:22.129Z,5.50
2022-09-28T23:51:48.447Z,5.57
2022-09-28T23:54:15.089Z,5.62
2022-09-28T23:56:41.412Z,5.52
2022-09-28T23:59:07.714Z,5.57
